sensor_id;sensor_type;location;lat;lon;timestamp;P1;durP1;ratioP1;P2;durP2;ratioP2
64986;SDS011;67903;52.108;9.358;2024-03-17T00:01:34;6.22;;;3.78;;
64986;SDS011;67903;52.108;9.358;2024-03-17T00:04:20;6.75;;;3.40;;
64986;SDS011;67903;52.108;9.358;2024-03-17T00:07:04;8.10;;;3.85;;
64986;SDS011;67903;52.108;9.358;2024-03-17T00:09:49;6.32;;;4.22;;
64986;SDS011;67903;52.108;9.358;2024-03-17T00:12:34;5.00;;;4.18;;
64986;SDS011;67903;52.108;9.358;2024-03-17T00:15:18;10.98;;;4.90;;
64986;SDS011;67903;52.108;9.358;2024-03-17T00:18:03;6.22;;;4.57;;
64986;SDS011;67903;52.108;9.358;2024-03-17T00:20:48;7.30;;;4.45;;
64986;SDS011;67903;52.108;9.358;2024-03-17T00:23:33;6.50;;;4.85;;
64986;SDS011;67903;52.108;9.358;2024-03-17T00:26:17;8.48;;;4.72;;
64986;SDS011;67903;52.108;9.358;2024-03-17T00:29:03;10.30;;;5.03;;
64986;SDS011;67903;52.108;9.358;2024-03-17T00:31:48;7.45;;;4.72;;
64986;SDS011;67903;52.108;9.358;2024-03-17T00:34:33;7.32;;;4.70;;
64986;SDS011;67903;52.108;9.358;2024-03-17T00:37:17;5.70;;;4.70;;
64986;SDS011;67903;52.108;9.358;2024-03-17T00:40:02;7.05;;;5.38;;
64986;SDS011;67903;52.108;9.358;2024-03-17T00:42:47;7.10;;;4.70;;
64986;SDS011;67903;52.108;9.358;2024-03-17T00:45:32;4.43;;;3.92;;
64986;SDS011;67903;52.108;9.358;2024-03-17T00:48:16;5.68;;;3.40;;
64986;SDS011;67903;52.108;9.358;2024-03-17T00:51:01;6.10;;;4.18;;
64986;SDS011;67903;52.108;9.358;2024-03-17T00:53:46;7.50;;;3.85;;
64986;SDS011;67903;52.108;9.358;2024-03-17T00:56:30;7.15;;;4.45;;
64986;SDS011;67903;52.108;9.358;2024-03-17T00:59:15;7.88;;;4.47;;
64986;SDS011;67903;52.108;9.358;2024-03-17T01:02:00;8.05;;;4.30;;
64986;SDS011;67903;52.108;9.358;2024-03-17T01:04:46;6.90;;;4.50;;
64986;SDS011;67903;52.108;9.358;2024-03-17T01:07:31;8.05;;;4.57;;
64986;SDS011;67903;52.108;9.358;2024-03-17T01:10:16;6.90;;;4.03;;
64986;SDS011;67903;52.108;9.358;2024-03-17T01:13:00;6.60;;;4.40;;
64986;SDS011;67903;52.108;9.358;2024-03-17T01:15:45;7.03;;;4.07;;
64986;SDS011;67903;52.108;9.358;2024-03-17T01:18:35;7.10;;;4.50;;
64986;SDS011;67903;52.108;9.358;2024-03-17T01:21:21;10.43;;;4.95;;
64986;SDS011;67903;52.108;9.358;2024-03-17T01:24:06;11.35;;;5.20;;
64986;SDS011;67903;52.108;9.358;2024-03-17T01:26:51;8.80;;;4.65;;
64986;SDS011;67903;52.108;9.358;2024-03-17T01:29:37;9.10;;;5.55;;
64986;SDS011;67903;52.108;9.358;2024-03-17T01:32:22;9.52;;;5.22;;
64986;SDS011;67903;52.108;9.358;2024-03-17T01:35:06;11.35;;;5.30;;
64986;SDS011;67903;52.108;9.358;2024-03-17T01:37:51;13.25;;;5.90;;
64986;SDS011;67903;52.108;9.358;2024-03-17T01:40:36;8.98;;;4.70;;
64986;SDS011;67903;52.108;9.358;2024-03-17T01:43:21;9.80;;;4.97;;
64986;SDS011;67903;52.108;9.358;2024-03-17T01:46:06;10.98;;;4.97;;
64986;SDS011;67903;52.108;9.358;2024-03-17T01:48:55;10.00;;;5.03;;
64986;SDS011;67903;52.108;9.358;2024-03-17T01:51:41;9.85;;;5.43;;
64986;SDS011;67903;52.108;9.358;2024-03-17T01:54:26;7.20;;;4.72;;
64986;SDS011;67903;52.108;9.358;2024-03-17T01:57:11;6.85;;;4.28;;
64986;SDS011;67903;52.108;9.358;2024-03-17T01:59:56;7.78;;;4.95;;
64986;SDS011;67903;52.108;9.358;2024-03-17T02:02:40;8.70;;;4.57;;
64986;SDS011;67903;52.108;9.358;2024-03-17T02:05:26;6.20;;;4.75;;
64986;SDS011;67903;52.108;9.358;2024-03-17T02:08:11;7.97;;;4.10;;
64986;SDS011;67903;52.108;9.358;2024-03-17T02:10:56;5.65;;;4.20;;
64986;SDS011;67903;52.108;9.358;2024-03-17T02:13:41;7.60;;;4.68;;
64986;SDS011;67903;52.108;9.358;2024-03-17T02:16:26;7.05;;;5.00;;
64986;SDS011;67903;52.108;9.358;2024-03-17T02:19:10;11.73;;;4.90;;
64986;SDS011;67903;52.108;9.358;2024-03-17T02:21:55;7.72;;;4.90;;
64986;SDS011;67903;52.108;9.358;2024-03-17T02:24:39;6.68;;;5.00;;
64986;SDS011;67903;52.108;9.358;2024-03-17T02:27:24;9.85;;;5.10;;
64986;SDS011;67903;52.108;9.358;2024-03-17T02:30:09;7.68;;;4.60;;
64986;SDS011;67903;52.108;9.358;2024-03-17T02:32:54;6.57;;;4.70;;
64986;SDS011;67903;52.108;9.358;2024-03-17T02:35:38;8.60;;;5.90;;
64986;SDS011;67903;52.108;9.358;2024-03-17T02:38:23;8.00;;;4.47;;
64986;SDS011;67903;52.108;9.358;2024-03-17T02:41:26;6.25;;;4.63;;
64986;SDS011;67903;52.108;9.358;2024-03-17T02:44:12;6.38;;;4.55;;
64986;SDS011;67903;52.108;9.358;2024-03-17T02:46:57;6.00;;;4.65;;
64986;SDS011;67903;52.108;9.358;2024-03-17T02:49:42;6.70;;;4.75;;
64986;SDS011;67903;52.108;9.358;2024-03-17T02:52:33;8.02;;;4.25;;
64986;SDS011;67903;52.108;9.358;2024-03-17T02:55:18;7.00;;;4.63;;
64986;SDS011;67903;52.108;9.358;2024-03-17T02:58:03;6.75;;;4.68;;
64986;SDS011;67903;52.108;9.358;2024-03-17T03:00:47;6.38;;;4.32;;
64986;SDS011;67903;52.108;9.358;2024-03-17T03:03:33;7.07;;;4.40;;
64986;SDS011;67903;52.108;9.358;2024-03-17T03:06:19;7.78;;;4.53;;
64986;SDS011;67903;52.108;9.358;2024-03-17T03:09:04;8.90;;;5.05;;
64986;SDS011;67903;52.108;9.358;2024-03-17T03:11:56;11.77;;;4.80;;
64986;SDS011;67903;52.108;9.358;2024-03-17T03:14:40;12.23;;;5.15;;
64986;SDS011;67903;52.108;9.358;2024-03-17T03:17:25;6.68;;;4.38;;
64986;SDS011;67903;52.108;9.358;2024-03-17T03:20:10;6.72;;;4.53;;
64986;SDS011;67903;52.108;9.358;2024-03-17T03:22:56;7.40;;;4.32;;
64986;SDS011;67903;52.108;9.358;2024-03-17T03:25:40;5.70;;;4.50;;
64986;SDS011;67903;52.108;9.358;2024-03-17T03:28:25;7.25;;;5.13;;
64986;SDS011;67903;52.108;9.358;2024-03-17T03:31:10;6.95;;;4.47;;
64986;SDS011;67903;52.108;9.358;2024-03-17T03:33:57;6.18;;;4.88;;
64986;SDS011;67903;52.108;9.358;2024-03-17T03:36:41;7.60;;;4.35;;
64986;SDS011;67903;52.108;9.358;2024-03-17T03:39:26;5.88;;;4.50;;
64986;SDS011;67903;52.108;9.358;2024-03-17T03:42:15;8.93;;;5.20;;
64986;SDS011;67903;52.108;9.358;2024-03-17T03:45:01;8.77;;;4.57;;
64986;SDS011;67903;52.108;9.358;2024-03-17T03:47:45;5.53;;;4.75;;
64986;SDS011;67903;52.108;9.358;2024-03-17T03:50:30;9.52;;;4.70;;
64986;SDS011;67903;52.108;9.358;2024-03-17T03:53:15;6.25;;;4.78;;
64986;SDS011;67903;52.108;9.358;2024-03-17T03:56:02;6.68;;;4.57;;
64986;SDS011;67903;52.108;9.358;2024-03-17T03:58:49;8.32;;;4.20;;
64986;SDS011;67903;52.108;9.358;2024-03-17T04:01:34;5.72;;;4.80;;
64986;SDS011;67903;52.108;9.358;2024-03-17T04:04:19;6.68;;;4.80;;
64986;SDS011;67903;52.108;9.358;2024-03-17T04:07:03;8.23;;;5.22;;
64986;SDS011;67903;52.108;9.358;2024-03-17T04:09:48;6.07;;;4.78;;
64986;SDS011;67903;52.108;9.358;2024-03-17T04:12:33;6.15;;;4.28;;
64986;SDS011;67903;52.108;9.358;2024-03-17T04:15:18;7.28;;;5.03;;
64986;SDS011;67903;52.108;9.358;2024-03-17T04:18:03;7.82;;;4.85;;
64986;SDS011;67903;52.108;9.358;2024-03-17T04:20:48;8.05;;;4.57;;
64986;SDS011;67903;52.108;9.358;2024-03-17T04:23:32;9.30;;;4.85;;
64986;SDS011;67903;52.108;9.358;2024-03-17T04:26:17;8.75;;;4.68;;
64986;SDS011;67903;52.108;9.358;2024-03-17T04:29:02;6.22;;;4.40;;
64986;SDS011;67903;52.108;9.358;2024-03-17T04:31:47;6.95;;;4.53;;
64986;SDS011;67903;52.108;9.358;2024-03-17T04:34:32;5.72;;;4.60;;
64986;SDS011;67903;52.108;9.358;2024-03-17T04:37:17;7.53;;;5.05;;
64986;SDS011;67903;52.108;9.358;2024-03-17T04:40:02;8.43;;;4.68;;
64986;SDS011;67903;52.108;9.358;2024-03-17T04:42:48;8.52;;;5.43;;
64986;SDS011;67903;52.108;9.358;2024-03-17T04:45:34;7.45;;;4.53;;
64986;SDS011;67903;52.108;9.358;2024-03-17T04:48:18;9.45;;;4.65;;
64986;SDS011;67903;52.108;9.358;2024-03-17T04:51:03;7.40;;;5.28;;
64986;SDS011;67903;52.108;9.358;2024-03-17T04:53:49;7.55;;;4.80;;
64986;SDS011;67903;52.108;9.358;2024-03-17T04:56:33;6.78;;;5.05;;
64986;SDS011;67903;52.108;9.358;2024-03-17T04:59:18;6.95;;;5.07;;
64986;SDS011;67903;52.108;9.358;2024-03-17T05:02:03;7.20;;;4.50;;
64986;SDS011;67903;52.108;9.358;2024-03-17T05:04:48;7.32;;;4.80;;
64986;SDS011;67903;52.108;9.358;2024-03-17T05:07:35;8.73;;;5.13;;
64986;SDS011;67903;52.108;9.358;2024-03-17T05:10:19;9.95;;;4.55;;
64986;SDS011;67903;52.108;9.358;2024-03-17T05:13:04;6.53;;;4.65;;
64986;SDS011;67903;52.108;9.358;2024-03-17T05:15:49;6.63;;;4.38;;
64986;SDS011;67903;52.108;9.358;2024-03-17T05:18:33;9.40;;;5.18;;
64986;SDS011;67903;52.108;9.358;2024-03-17T05:21:18;9.02;;;4.63;;
64986;SDS011;67903;52.108;9.358;2024-03-17T05:24:03;5.75;;;4.70;;
64986;SDS011;67903;52.108;9.358;2024-03-17T05:26:48;8.25;;;5.40;;
64986;SDS011;67903;52.108;9.358;2024-03-17T05:29:33;7.68;;;5.00;;
64986;SDS011;67903;52.108;9.358;2024-03-17T05:32:21;7.90;;;5.13;;
64986;SDS011;67903;52.108;9.358;2024-03-17T05:35:06;7.60;;;4.93;;
64986;SDS011;67903;52.108;9.358;2024-03-17T05:37:51;9.63;;;4.70;;
64986;SDS011;67903;52.108;9.358;2024-03-17T05:40:35;8.02;;;5.50;;
64986;SDS011;67903;52.108;9.358;2024-03-17T05:43:29;10.50;;;5.18;;
64986;SDS011;67903;52.108;9.358;2024-03-17T05:46:15;8.70;;;5.35;;
64986;SDS011;67903;52.108;9.358;2024-03-17T05:48:59;7.85;;;4.93;;
64986;SDS011;67903;52.108;9.358;2024-03-17T05:51:44;7.85;;;5.32;;
64986;SDS011;67903;52.108;9.358;2024-03-17T05:54:29;7.15;;;5.20;;
64986;SDS011;67903;52.108;9.358;2024-03-17T05:57:13;6.15;;;4.80;;
64986;SDS011;67903;52.108;9.358;2024-03-17T06:00:00;7.57;;;5.00;;
64986;SDS011;67903;52.108;9.358;2024-03-17T06:02:45;7.18;;;5.03;;
64986;SDS011;67903;52.108;9.358;2024-03-17T06:05:34;6.78;;;5.22;;
64986;SDS011;67903;52.108;9.358;2024-03-17T06:08:19;6.95;;;4.75;;
64986;SDS011;67903;52.108;9.358;2024-03-17T06:11:05;7.90;;;5.10;;
64986;SDS011;67903;52.108;9.358;2024-03-17T06:13:50;7.03;;;4.40;;
64986;SDS011;67903;52.108;9.358;2024-03-17T06:16:34;8.23;;;4.90;;
64986;SDS011;67903;52.108;9.358;2024-03-17T06:19:19;8.38;;;4.43;;
64986;SDS011;67903;52.108;9.358;2024-03-17T06:22:04;6.57;;;4.90;;
64986;SDS011;67903;52.108;9.358;2024-03-17T06:24:49;9.93;;;5.00;;
64986;SDS011;67903;52.108;9.358;2024-03-17T06:27:34;8.30;;;4.43;;
64986;SDS011;67903;52.108;9.358;2024-03-17T06:30:18;6.57;;;4.18;;
64986;SDS011;67903;52.108;9.358;2024-03-17T06:33:03;5.60;;;4.15;;
64986;SDS011;67903;52.108;9.358;2024-03-17T06:35:49;6.95;;;4.30;;
64986;SDS011;67903;52.108;9.358;2024-03-17T06:38:34;5.38;;;3.92;;
64986;SDS011;67903;52.108;9.358;2024-03-17T06:41:18;6.22;;;4.18;;
64986;SDS011;67903;52.108;9.358;2024-03-17T06:44:03;7.50;;;4.70;;
64986;SDS011;67903;52.108;9.358;2024-03-17T06:46:51;6.28;;;3.90;;
64986;SDS011;67903;52.108;9.358;2024-03-17T06:49:35;6.00;;;4.05;;
64986;SDS011;67903;52.108;9.358;2024-03-17T06:52:20;5.63;;;4.35;;
64986;SDS011;67903;52.108;9.358;2024-03-17T06:55:05;8.05;;;4.53;;
64986;SDS011;67903;52.108;9.358;2024-03-17T06:57:51;6.32;;;4.00;;
64986;SDS011;67903;52.108;9.358;2024-03-17T07:00:36;6.40;;;4.75;;
64986;SDS011;67903;52.108;9.358;2024-03-17T07:03:22;7.30;;;4.80;;
64986;SDS011;67903;52.108;9.358;2024-03-17T07:06:07;5.40;;;4.32;;
64986;SDS011;67903;52.108;9.358;2024-03-17T07:08:54;7.70;;;4.70;;
64986;SDS011;67903;52.108;9.358;2024-03-17T07:11:38;8.20;;;4.65;;
64986;SDS011;67903;52.108;9.358;2024-03-17T07:14:23;6.13;;;4.63;;
64986;SDS011;67903;52.108;9.358;2024-03-17T07:17:09;5.15;;;4.30;;
64986;SDS011;67903;52.108;9.358;2024-03-17T07:19:54;10.27;;;4.57;;
64986;SDS011;67903;52.108;9.358;2024-03-17T07:22:39;7.68;;;4.70;;
64986;SDS011;67903;52.108;9.358;2024-03-17T07:25:23;8.20;;;4.43;;
64986;SDS011;67903;52.108;9.358;2024-03-17T07:28:08;8.48;;;4.03;;
64986;SDS011;67903;52.108;9.358;2024-03-17T07:30:54;5.30;;;4.00;;
64986;SDS011;67903;52.108;9.358;2024-03-17T07:33:39;6.15;;;4.30;;
64986;SDS011;67903;52.108;9.358;2024-03-17T07:36:24;8.88;;;4.50;;
64986;SDS011;67903;52.108;9.358;2024-03-17T07:39:09;7.45;;;4.60;;
64986;SDS011;67903;52.108;9.358;2024-03-17T07:41:53;6.93;;;4.45;;
64986;SDS011;67903;52.108;9.358;2024-03-17T07:44:38;6.60;;;4.82;;
64986;SDS011;67903;52.108;9.358;2024-03-17T07:47:23;6.15;;;4.28;;
64986;SDS011;67903;52.108;9.358;2024-03-17T07:50:07;8.63;;;5.15;;
64986;SDS011;67903;52.108;9.358;2024-03-17T07:52:52;7.90;;;4.43;;
64986;SDS011;67903;52.108;9.358;2024-03-17T07:55:37;23.65;;;15.52;;
64986;SDS011;67903;52.108;9.358;2024-03-17T07:58:21;8.02;;;5.13;;
64986;SDS011;67903;52.108;9.358;2024-03-17T08:01:06;5.65;;;4.88;;
64986;SDS011;67903;52.108;9.358;2024-03-17T08:03:53;8.48;;;4.68;;
64986;SDS011;67903;52.108;9.358;2024-03-17T08:06:39;8.07;;;5.13;;
64986;SDS011;67903;52.108;9.358;2024-03-17T08:09:27;6.68;;;5.07;;
64986;SDS011;67903;52.108;9.358;2024-03-17T08:12:12;8.25;;;4.78;;
64986;SDS011;67903;52.108;9.358;2024-03-17T08:14:57;6.72;;;4.78;;
64986;SDS011;67903;52.108;9.358;2024-03-17T08:17:41;7.80;;;4.78;;
64986;SDS011;67903;52.108;9.358;2024-03-17T08:20:26;6.97;;;4.95;;
64986;SDS011;67903;52.108;9.358;2024-03-17T08:23:11;7.82;;;5.68;;
64986;SDS011;67903;52.108;9.358;2024-03-17T08:25:57;7.93;;;4.70;;
64986;SDS011;67903;52.108;9.358;2024-03-17T08:28:43;7.55;;;4.72;;
64986;SDS011;67903;52.108;9.358;2024-03-17T08:31:28;8.52;;;5.35;;
64986;SDS011;67903;52.108;9.358;2024-03-17T08:34:13;5.22;;;4.53;;
64986;SDS011;67903;52.108;9.358;2024-03-17T08:36:57;7.32;;;4.82;;
64986;SDS011;67903;52.108;9.358;2024-03-17T08:39:42;7.30;;;4.30;;
64986;SDS011;67903;52.108;9.358;2024-03-17T08:42:27;7.53;;;5.10;;
64986;SDS011;67903;52.108;9.358;2024-03-17T08:45:11;6.40;;;5.00;;
64986;SDS011;67903;52.108;9.358;2024-03-17T08:47:56;7.15;;;4.90;;
64986;SDS011;67903;52.108;9.358;2024-03-17T08:50:41;7.00;;;5.50;;
64986;SDS011;67903;52.108;9.358;2024-03-17T08:53:25;11.13;;;5.40;;
64986;SDS011;67903;52.108;9.358;2024-03-17T08:56:10;8.43;;;4.95;;
64986;SDS011;67903;52.108;9.358;2024-03-17T08:58:55;8.68;;;5.20;;
64986;SDS011;67903;52.108;9.358;2024-03-17T09:01:39;7.05;;;4.50;;
64986;SDS011;67903;52.108;9.358;2024-03-17T09:04:24;7.28;;;4.82;;
64986;SDS011;67903;52.108;9.358;2024-03-17T09:07:08;5.28;;;4.55;;
64986;SDS011;67903;52.108;9.358;2024-03-17T09:09:53;8.63;;;4.60;;
64986;SDS011;67903;52.108;9.358;2024-03-17T09:12:37;12.23;;;4.90;;
64986;SDS011;67903;52.108;9.358;2024-03-17T09:15:22;6.15;;;4.35;;
64986;SDS011;67903;52.108;9.358;2024-03-17T09:18:07;7.60;;;4.80;;
64986;SDS011;67903;52.108;9.358;2024-03-17T09:20:55;9.13;;;5.20;;
64986;SDS011;67903;52.108;9.358;2024-03-17T09:23:51;9.57;;;4.82;;
64986;SDS011;67903;52.108;9.358;2024-03-17T09:26:36;6.53;;;4.97;;
64986;SDS011;67903;52.108;9.358;2024-03-17T09:29:23;7.18;;;4.82;;
64986;SDS011;67903;52.108;9.358;2024-03-17T09:32:08;4.88;;;4.10;;
64986;SDS011;67903;52.108;9.358;2024-03-17T09:34:58;9.20;;;4.72;;
64986;SDS011;67903;52.108;9.358;2024-03-17T09:37:43;8.32;;;4.57;;
64986;SDS011;67903;52.108;9.358;2024-03-17T09:40:27;6.57;;;4.63;;
64986;SDS011;67903;52.108;9.358;2024-03-17T09:43:12;6.82;;;4.45;;
64986;SDS011;67903;52.108;9.358;2024-03-17T09:45:57;7.72;;;4.70;;
64986;SDS011;67903;52.108;9.358;2024-03-17T09:48:41;5.38;;;4.35;;
64986;SDS011;67903;52.108;9.358;2024-03-17T09:51:27;7.78;;;4.78;;
64986;SDS011;67903;52.108;9.358;2024-03-17T09:54:18;8.15;;;4.43;;
64986;SDS011;67903;52.108;9.358;2024-03-17T09:57:06;7.75;;;5.47;;
64986;SDS011;67903;52.108;9.358;2024-03-17T09:59:58;11.57;;;6.65;;
64986;SDS011;67903;52.108;9.358;2024-03-17T10:02:44;8.73;;;5.65;;
64986;SDS011;67903;52.108;9.358;2024-03-17T10:05:30;8.95;;;6.75;;
64986;SDS011;67903;52.108;9.358;2024-03-17T10:08:21;8.50;;;6.30;;
64986;SDS011;67903;52.108;9.358;2024-03-17T10:11:06;9.75;;;6.55;;
64986;SDS011;67903;52.108;9.358;2024-03-17T10:16:45;8.05;;;6.80;;
64986;SDS011;67903;52.108;9.358;2024-03-17T10:19:30;9.80;;;6.70;;
64986;SDS011;67903;52.108;9.358;2024-03-17T10:22:15;11.85;;;6.57;;
64986;SDS011;67903;52.108;9.358;2024-03-17T10:24:59;10.50;;;7.78;;
64986;SDS011;67903;52.108;9.358;2024-03-17T10:27:44;11.95;;;7.35;;
64986;SDS011;67903;52.108;9.358;2024-03-17T10:30:28;11.90;;;7.95;;
64986;SDS011;67903;52.108;9.358;2024-03-17T10:33:22;12.25;;;8.48;;
64986;SDS011;67903;52.108;9.358;2024-03-17T10:36:15;11.50;;;7.95;;
64986;SDS011;67903;52.108;9.358;2024-03-17T10:39:01;12.52;;;7.20;;
64986;SDS011;67903;52.108;9.358;2024-03-17T10:41:46;7.63;;;5.65;;
64986;SDS011;67903;52.108;9.358;2024-03-17T10:44:34;8.55;;;6.45;;
64986;SDS011;67903;52.108;9.358;2024-03-17T10:47:24;10.00;;;6.28;;
64986;SDS011;67903;52.108;9.358;2024-03-17T10:50:17;9.35;;;6.75;;
64986;SDS011;67903;52.108;9.358;2024-03-17T10:53:07;10.90;;;7.10;;
64986;SDS011;67903;52.108;9.358;2024-03-17T10:56:00;10.23;;;7.00;;
64986;SDS011;67903;52.108;9.358;2024-03-17T10:58:50;8.68;;;6.65;;
64986;SDS011;67903;52.108;9.358;2024-03-17T11:01:40;9.93;;;8.32;;
64986;SDS011;67903;52.108;9.358;2024-03-17T11:04:25;11.82;;;8.52;;
64986;SDS011;67903;52.108;9.358;2024-03-17T11:07:12;13.02;;;8.23;;
64986;SDS011;67903;52.108;9.358;2024-03-17T11:10:00;11.13;;;8.63;;
64986;SDS011;67903;52.108;9.358;2024-03-17T11:12:51;14.90;;;8.57;;
64986;SDS011;67903;52.108;9.358;2024-03-17T11:15:37;13.57;;;8.93;;
64986;SDS011;67903;52.108;9.358;2024-03-17T11:21:18;11.43;;;8.50;;
64986;SDS011;67903;52.108;9.358;2024-03-17T11:24:05;11.63;;;7.93;;
64986;SDS011;67903;52.108;9.358;2024-03-17T11:26:49;11.32;;;7.72;;
64986;SDS011;67903;52.108;9.358;2024-03-17T11:29:34;9.52;;;7.60;;
64986;SDS011;67903;52.108;9.358;2024-03-17T11:32:25;10.90;;;8.40;;
64986;SDS011;67903;52.108;9.358;2024-03-17T11:35:12;9.30;;;7.82;;
64986;SDS011;67903;52.108;9.358;2024-03-17T11:37:57;12.25;;;8.18;;
64986;SDS011;67903;52.108;9.358;2024-03-17T11:40:42;10.75;;;7.47;;
64986;SDS011;67903;52.108;9.358;2024-03-17T11:43:27;9.60;;;7.50;;
64986;SDS011;67903;52.108;9.358;2024-03-17T11:46:13;11.82;;;8.52;;
64986;SDS011;67903;52.108;9.358;2024-03-17T11:48:58;10.93;;;8.35;;
64986;SDS011;67903;52.108;9.358;2024-03-17T11:51:48;12.50;;;8.43;;
64986;SDS011;67903;52.108;9.358;2024-03-17T11:54:34;11.25;;;8.10;;
64986;SDS011;67903;52.108;9.358;2024-03-17T11:57:21;12.68;;;8.40;;
64986;SDS011;67903;52.108;9.358;2024-03-17T12:00:15;14.23;;;8.50;;
64986;SDS011;67903;52.108;9.358;2024-03-17T12:03:04;12.35;;;8.52;;
64986;SDS011;67903;52.108;9.358;2024-03-17T12:05:48;11.88;;;8.85;;
64986;SDS011;67903;52.108;9.358;2024-03-17T12:08:33;10.30;;;8.38;;
64986;SDS011;67903;52.108;9.358;2024-03-17T12:11:18;20.95;;;15.43;;
64986;SDS011;67903;52.108;9.358;2024-03-17T12:14:11;16.83;;;9.20;;
64986;SDS011;67903;52.108;9.358;2024-03-17T12:17:02;14.90;;;11.25;;
64986;SDS011;67903;52.108;9.358;2024-03-17T12:19:50;13.23;;;9.88;;
64986;SDS011;67903;52.108;9.358;2024-03-17T12:22:36;9.98;;;7.82;;
64986;SDS011;67903;52.108;9.358;2024-03-17T12:25:21;10.93;;;8.50;;
64986;SDS011;67903;52.108;9.358;2024-03-17T12:28:13;11.20;;;8.10;;
64986;SDS011;67903;52.108;9.358;2024-03-17T12:31:00;10.05;;;7.50;;
64986;SDS011;67903;52.108;9.358;2024-03-17T12:33:45;10.68;;;7.15;;
64986;SDS011;67903;52.108;9.358;2024-03-17T12:36:30;12.02;;;7.85;;
64986;SDS011;67903;52.108;9.358;2024-03-17T12:42:07;10.43;;;7.38;;
64986;SDS011;67903;52.108;9.358;2024-03-17T12:47:38;9.70;;;7.53;;
64986;SDS011;67903;52.108;9.358;2024-03-17T12:50:24;10.07;;;7.38;;
64986;SDS011;67903;52.108;9.358;2024-03-17T12:53:13;9.02;;;7.03;;
64986;SDS011;67903;52.108;9.358;2024-03-17T12:56:01;10.95;;;6.72;;
64986;SDS011;67903;52.108;9.358;2024-03-17T12:59:09;11.05;;;8.10;;
64986;SDS011;67903;52.108;9.358;2024-03-17T13:02:13;11.23;;;6.95;;
64986;SDS011;67903;52.108;9.358;2024-03-17T13:05:05;11.70;;;6.97;;
64986;SDS011;67903;52.108;9.358;2024-03-17T13:08:02;9.35;;;6.90;;
64986;SDS011;67903;52.108;9.358;2024-03-17T13:10:47;8.55;;;6.88;;
64986;SDS011;67903;52.108;9.358;2024-03-17T13:13:31;8.93;;;7.40;;
64986;SDS011;67903;52.108;9.358;2024-03-17T13:16:16;7.60;;;6.03;;
64986;SDS011;67903;52.108;9.358;2024-03-17T13:19:01;8.70;;;5.95;;
64986;SDS011;67903;52.108;9.358;2024-03-17T13:21:45;8.70;;;7.38;;
64986;SDS011;67903;52.108;9.358;2024-03-17T13:24:30;7.57;;;6.60;;
64986;SDS011;67903;52.108;9.358;2024-03-17T13:27:15;9.50;;;6.60;;
64986;SDS011;67903;52.108;9.358;2024-03-17T13:30:00;7.40;;;6.30;;
64986;SDS011;67903;52.108;9.358;2024-03-17T13:32:44;8.18;;;6.18;;
64986;SDS011;67903;52.108;9.358;2024-03-17T13:35:30;8.30;;;6.32;;
64986;SDS011;67903;52.108;9.358;2024-03-17T13:38:15;7.97;;;6.72;;
64986;SDS011;67903;52.108;9.358;2024-03-17T13:40:59;7.80;;;6.03;;
64986;SDS011;67903;52.108;9.358;2024-03-17T13:43:44;7.00;;;5.47;;
64986;SDS011;67903;52.108;9.358;2024-03-17T13:46:29;8.40;;;6.43;;
64986;SDS011;67903;52.108;9.358;2024-03-17T13:49:14;8.07;;;6.68;;
64986;SDS011;67903;52.108;9.358;2024-03-17T13:51:58;7.90;;;6.35;;
64986;SDS011;67903;52.108;9.358;2024-03-17T13:54:43;7.80;;;7.00;;
64986;SDS011;67903;52.108;9.358;2024-03-17T13:57:28;9.23;;;6.68;;
64986;SDS011;67903;52.108;9.358;2024-03-17T14:00:13;7.30;;;6.50;;
64986;SDS011;67903;52.108;9.358;2024-03-17T14:03:00;7.50;;;6.72;;
64986;SDS011;67903;52.108;9.358;2024-03-17T14:05:46;7.68;;;6.85;;
64986;SDS011;67903;52.108;9.358;2024-03-17T14:08:31;8.07;;;6.75;;
64986;SDS011;67903;52.108;9.358;2024-03-17T14:11:15;7.82;;;6.43;;
64986;SDS011;67903;52.108;9.358;2024-03-17T14:14:00;7.95;;;6.00;;
64986;SDS011;67903;52.108;9.358;2024-03-17T14:16:45;7.63;;;6.63;;
64986;SDS011;67903;52.108;9.358;2024-03-17T14:19:30;8.65;;;6.35;;
64986;SDS011;67903;52.108;9.358;2024-03-17T14:22:14;8.35;;;6.55;;
64986;SDS011;67903;52.108;9.358;2024-03-17T14:24:59;7.90;;;6.78;;
64986;SDS011;67903;52.108;9.358;2024-03-17T14:27:43;7.18;;;6.47;;
64986;SDS011;67903;52.108;9.358;2024-03-17T14:30:29;10.80;;;6.53;;
64986;SDS011;67903;52.108;9.358;2024-03-17T14:33:14;8.77;;;6.85;;
64986;SDS011;67903;52.108;9.358;2024-03-17T14:35:59;6.90;;;6.18;;
64986;SDS011;67903;52.108;9.358;2024-03-17T14:38:44;7.28;;;6.57;;
64986;SDS011;67903;52.108;9.358;2024-03-17T14:41:29;7.03;;;6.32;;
64986;SDS011;67903;52.108;9.358;2024-03-17T14:44:14;7.35;;;6.65;;
64986;SDS011;67903;52.108;9.358;2024-03-17T14:46:59;7.70;;;6.93;;
64986;SDS011;67903;52.108;9.358;2024-03-17T14:49:44;8.88;;;6.75;;
64986;SDS011;67903;52.108;9.358;2024-03-17T14:52:29;7.50;;;6.55;;
64986;SDS011;67903;52.108;9.358;2024-03-17T14:55:14;8.38;;;7.47;;
64986;SDS011;67903;52.108;9.358;2024-03-17T14:57:59;8.70;;;6.63;;
64986;SDS011;67903;52.108;9.358;2024-03-17T15:00:46;7.28;;;6.47;;
64986;SDS011;67903;52.108;9.358;2024-03-17T15:03:31;8.15;;;6.97;;
64986;SDS011;67903;52.108;9.358;2024-03-17T15:06:17;7.30;;;6.32;;
64986;SDS011;67903;52.108;9.358;2024-03-17T15:09:02;7.35;;;6.65;;
64986;SDS011;67903;52.108;9.358;2024-03-17T15:11:47;8.50;;;6.78;;
64986;SDS011;67903;52.108;9.358;2024-03-17T15:14:32;7.78;;;6.97;;
64986;SDS011;67903;52.108;9.358;2024-03-17T15:17:16;8.23;;;7.15;;
64986;SDS011;67903;52.108;9.358;2024-03-17T15:20:01;7.88;;;7.03;;
64986;SDS011;67903;52.108;9.358;2024-03-17T15:22:52;7.38;;;6.50;;
64986;SDS011;67903;52.108;9.358;2024-03-17T15:25:38;8.55;;;7.20;;
64986;SDS011;67903;52.108;9.358;2024-03-17T15:28:23;8.32;;;7.38;;
64986;SDS011;67903;52.108;9.358;2024-03-17T15:31:10;8.38;;;7.47;;
64986;SDS011;67903;52.108;9.358;2024-03-17T15:33:55;8.32;;;7.30;;
64986;SDS011;67903;52.108;9.358;2024-03-17T15:36:41;8.90;;;7.72;;
64986;SDS011;67903;52.108;9.358;2024-03-17T15:39:26;9.52;;;7.00;;
64986;SDS011;67903;52.108;9.358;2024-03-17T15:42:11;10.98;;;7.82;;
64986;SDS011;67903;52.108;9.358;2024-03-17T15:44:57;9.73;;;7.65;;
64986;SDS011;67903;52.108;9.358;2024-03-17T15:47:41;11.77;;;7.93;;
64986;SDS011;67903;52.108;9.358;2024-03-17T15:50:26;10.18;;;7.95;;
64986;SDS011;67903;52.108;9.358;2024-03-17T15:53:11;10.00;;;7.30;;
64986;SDS011;67903;52.108;9.358;2024-03-17T15:55:56;8.50;;;7.70;;
64986;SDS011;67903;52.108;9.358;2024-03-17T15:58:42;10.20;;;8.32;;
64986;SDS011;67903;52.108;9.358;2024-03-17T16:01:26;10.20;;;7.93;;
64986;SDS011;67903;52.108;9.358;2024-03-17T16:04:11;14.02;;;9.10;;
64986;SDS011;67903;52.108;9.358;2024-03-17T16:06:56;11.98;;;9.43;;
64986;SDS011;67903;52.108;9.358;2024-03-17T16:09:40;15.05;;;10.98;;
64986;SDS011;67903;52.108;9.358;2024-03-17T16:12:25;11.65;;;9.00;;
64986;SDS011;67903;52.108;9.358;2024-03-17T16:15:10;11.10;;;8.50;;
64986;SDS011;67903;52.108;9.358;2024-03-17T16:17:56;8.60;;;7.22;;
64986;SDS011;67903;52.108;9.358;2024-03-17T16:23:33;9.60;;;8.38;;
64986;SDS011;67903;52.108;9.358;2024-03-17T16:26:22;11.18;;;8.57;;
64986;SDS011;67903;52.108;9.358;2024-03-17T16:29:07;10.98;;;8.13;;
64986;SDS011;67903;52.108;9.358;2024-03-17T16:31:54;9.38;;;7.80;;
64986;SDS011;67903;52.108;9.358;2024-03-17T16:34:38;9.65;;;8.02;;
64986;SDS011;67903;52.108;9.358;2024-03-17T16:37:23;10.55;;;7.72;;
64986;SDS011;67903;52.108;9.358;2024-03-17T16:40:08;9.73;;;8.20;;
64986;SDS011;67903;52.108;9.358;2024-03-17T16:42:52;8.32;;;7.43;;
64986;SDS011;67903;52.108;9.358;2024-03-17T16:45:37;8.50;;;7.45;;
64986;SDS011;67903;52.108;9.358;2024-03-17T16:48:29;10.93;;;7.57;;
64986;SDS011;67903;52.108;9.358;2024-03-17T16:51:14;9.35;;;7.53;;